Time;durP1;ratioP1;P1;durP2;ratioP2;P2;SDS_P1;SDS_P2;PMS_P1;PMS_P2;Temp;Humidity;BMP_temperature;BMP_pressure;BME280_temperature;BME280_humidity;BME280_pressure;Samples;Min_cycle;Max_cycle;Signal;HPM_P1;HPM_P2
2022/06/24 00:02:25;;;;;;;6.45;1.33;;;19.20;56.90;;;;;;7360035;19;20013;-62
2022/06/24 00:04:57;;;;;;;4.88;1.40;;;19.10;56.70;;;;;;7387168;19;20022;-62
2022/06/24 00:07:27;;;;;;;4.05;1.35;;;19.20;57.70;;;;;;7359544;19;20109;-62
2022/06/24 00:09:59;;;;;;;5.30;1.77;;;19.30;60.00;;;;;;7365939;19;20014;-62
2022/06/24 00:12:29;;;;;;;5.07;1.60;;;19.20;58.00;;;;;;7358632;19;20090;-62
2022/06/24 00:15:01;;;;;;;3.85;1.50;;;19.10;56.60;;;;;;7364851;19;20007;-63
2022/06/24 00:17:32;;;;;;;3.58;1.58;;;19.10;58.30;;;;;;7363050;19;20015;-63
2022/06/24 00:20:04;;;;;;;4.78;1.80;;;19.20;57.50;;;;;;7394019;19;20025;-62
2022/06/24 00:22:44;;;;;;;7.38;1.75;;;19.30;57.50;;;;;;7365552;19;20169;-62
2022/06/24 00:25:18;;;;;;;3.17;1.35;;;19.30;55.00;;;;;;7371562;19;20018;-62
2022/06/24 00:28:01;;;;;;;2.45;1.40;;;19.20;53.60;;;;;;7372516;19;20490;-62
2022/06/24 00:30:37;;;;;;;1.90;1.40;;;19.10;55.10;;;;;;7373187;19;20014;-62
2022/06/24 00:33:15;;;;;;;7.18;1.70;;;19.10;56.40;;;;;;7362448;19;20134;-62
2022/06/24 00:35:47;;;;;;;4.03;1.70;;;19.00;57.40;;;;;;7369566;19;20089;-62
2022/06/24 00:38:25;;;;;;;2.90;1.58;;;18.90;59.50;;;;;;7392779;19;20027;-62
2022/06/24 00:41:03;;;;;;;7.28;1.70;;;18.90;61.50;;;;;;7371802;19;20010;-62
2022/06/24 00:43:38;;;;;;;4.80;1.90;;;18.90;61.50;;;;;;7364895;19;20014;-61
2022/06/24 00:46:15;;;;;;;4.93;1.95;;;18.80;61.40;;;;;;7369623;19;20010;-61
2022/06/24 00:48:52;;;;;;;6.13;1.95;;;18.90;63.60;;;;;;7371646;19;20090;-62
2022/06/24 00:51:24;;;;;;;5.82;1.90;;;18.90;62.80;;;;;;7369922;19;20015;-61
2022/06/24 00:53:56;;;;;;;5.22;1.67;;;19.00;62.90;;;;;;7365999;19;20018;-61
2022/06/24 00:56:30;;;;;;;5.45;2.55;;;18.90;60.10;;;;;;7369369;19;20020;-63
2022/06/24 00:59:01;;;;;;;5.70;1.85;;;19.00;61.60;;;;;;7393366;19;20023;-62
2022/06/24 01:01:32;;;;;;;4.00;1.90;;;19.10;62.60;;;;;;7368767;19;20041;-62
2022/06/24 01:04:04;;;;;;;4.22;2.03;;;19.00;61.60;;;;;;7366632;19;20010;-61
2022/06/24 01:06:34;;;;;;;3.47;1.90;;;19.10;61.80;;;;;;7370281;19;20466;-62
2022/06/24 01:09:04;;;;;;;5.18;1.60;;;19.20;61.90;;;;;;7371204;19;20086;-62
2022/06/24 01:11:40;;;;;;;5.05;1.85;;;19.00;61.60;;;;;;7369396;19;20027;-62
2022/06/24 01:14:11;;;;;;;6.70;1.98;;;19.00;62.90;;;;;;7390920;19;20031;-62
2022/06/24 01:16:42;;;;;;;4.10;2.03;;;19.00;63.70;;;;;;7368029;19;20028;-62
2022/06/24 01:19:13;;;;;;;4.15;1.70;;;19.00;63.10;;;;;;7370331;19;20011;-62
2022/06/24 01:21:48;;;;;;;4.72;1.88;;;19.00;60.40;;;;;;7367131;19;20014;-62
2022/06/24 01:24:20;;;;;;;4.25;2.08;;;19.10;61.80;;;;;;7368003;19;20013;-61
2022/06/24 01:26:51;;;;;;;3.17;1.75;;;18.90;61.60;;;;;;7368994;19;20019;-61
2022/06/24 01:29:22;;;;;;;5.82;1.70;;;19.00;61.20;;;;;;7390364;19;20016;-62
2022/06/24 01:31:54;;;;;;;7.38;2.08;;;19.00;60.20;;;;;;7364363;19;20019;-62
2022/06/24 01:34:26;;;;;;;6.47;2.35;;;19.00;59.80;;;;;;7367953;19;20529;-62
2022/06/24 01:36:59;;;;;;;3.90;2.20;;;19.10;61.10;;;;;;7369290;19;20113;-62
2022/06/24 01:39:29;;;;;;;7.95;2.35;;;18.80;61.10;;;;;;7369793;19;20089;-62
2022/06/24 01:41:59;;;;;;;4.30;1.98;;;18.80;61.00;;;;;;7365434;19;20078;-62
2022/06/24 01:44:29;;;;;;;5.07;2.53;;;18.90;61.60;;;;;;7370595;19;20019;-62
2022/06/24 01:46:59;;;;;;;6.60;2.55;;;18.80;60.50;;;;;;7389017;19;20358;-62
2022/06/24 01:49:29;;;;;;;9.65;3.10;;;18.80;61.40;;;;;;7369183;19;20030;-63
2022/06/24 01:52:02;;;;;;;7.72;3.10;;;18.90;62.80;;;;;;7364738;19;20015;-63
2022/06/24 01:54:32;;;;;;;5.75;3.00;;;18.80;61.40;;;;;;7369108;19;20014;-62
2022/06/24 01:57:02;;;;;;;7.65;3.40;;;18.90;63.20;;;;;;7367923;19;20078;-62
2022/06/24 01:59:31;;;;;;;7.95;3.55;;;18.80;61.40;;;;;;7369420;19;20465;-63
2022/06/24 02:02:01;;;;;;;6.93;3.50;;;18.70;61.40;;;;;;7385275;19;20440;-63
2022/06/24 02:04:31;;;;;;;8.35;4.05;;;18.80;62.30;;;;;;7369693;19;20031;-63
2022/06/24 02:07:04;;;;;;;8.77;3.42;;;18.70;61.40;;;;;;7367240;19;20014;-63
2022/06/24 02:13:26;;;;;;;8.95;3.80;;;18.70;62.50;;;;;;7368361;19;20014;-62
2022/06/24 02:15:07;;;;;;;7.78;2.67;;;18.60;59.30;;;;;;7368754;19;20524;-62
2022/06/24 02:17:37;;;;;;;5.45;2.95;;;18.70;61.40;;;;;;7368254;19;20018;-62
2022/06/24 02:20:08;;;;;;;7.05;3.22;;;18.50;61.00;;;;;;7390342;19;20318;-62
2022/06/24 02:22:41;;;;;;;8.73;3.08;;;18.40;60.20;;;;;;7360339;19;20014;-62
2022/06/24 02:25:11;;;;;;;5.63;2.70;;;18.50;62.30;;;;;;7367918;19;20011;-62
2022/06/24 02:27:41;;;;;;;7.05;2.85;;;18.60;63.10;;;;;;7368586;19;20078;-62
2022/06/24 02:30:12;;;;;;;8.45;3.30;;;18.50;62.50;;;;;;7368363;19;20026;-62
2022/06/24 02:32:42;;;;;;;6.82;3.20;;;18.40;62.50;;;;;;7360904;19;20023;-61
2022/06/24 02:35:12;;;;;;;9.13;3.38;;;18.50;62.90;;;;;;7390512;19;20014;-62
2022/06/24 02:37:45;;;;;;;9.75;3.60;;;18.60;62.30;;;;;;7367363;19;20011;-62
2022/06/24 02:42:58;;;;;;;8.38;2.80;;;18.30;60.60;;;;;;7359903;19;20017;-63
2022/06/24 02:45:28;;;;;;;7.32;2.95;;;18.40;60.30;;;;;;7368375;19;20502;-63
2022/06/24 02:47:58;;;;;;;4.97;2.95;;;18.40;59.50;;;;;;7366977;19;20025;-63
2022/06/24 02:50:28;;;;;;;9.13;3.58;;;18.20;60.50;;;;;;7368691;19;20360;-63
2022/06/24 02:53:00;;;;;;;6.03;2.70;;;18.30;60.40;;;;;;7381620;19;20009;-61
2022/06/24 02:55:30;;;;;;;5.82;3.35;;;18.30;59.60;;;;;;7367230;19;20010;-61
2022/06/24 02:58:00;;;;;;;6.05;3.00;;;18.40;58.10;;;;;;7366378;19;20020;-61
2022/06/24 03:00:30;;;;;;;7.53;2.72;;;18.40;59.50;;;;;;7368262;19;20010;-62
2022/06/24 03:03:00;;;;;;;8.30;3.15;;;18.30;58.90;;;;;;7360329;19;20018;-62
2022/06/24 03:05:30;;;;;;;7.32;3.13;;;18.30;59.80;;;;;;7367808;19;20010;-62
2022/06/24 03:08:02;;;;;;;6.03;3.25;;;18.30;61.00;;;;;;7387097;19;20010;-62
2022/06/24 03:10:32;;;;;;;9.63;3.15;;;18.10;60.80;;;;;;7367000;19;20144;-62
2022/06/24 03:13:02;;;;;;;8.98;2.83;;;18.10;62.20;;;;;;7359386;19;20065;-62
2022/06/24 03:15:32;;;;;;;6.85;3.42;;;18.10;63.30;;;;;;7367812;19;20100;-61
2022/06/24 03:18:02;;;;;;;5.65;3.15;;;18.10;62.70;;;;;;7365780;19;20032;-61
2022/06/24 03:20:33;;;;;;;9.65;3.10;;;18.10;62.00;;;;;;7367097;19;20014;-62
2022/06/24 03:23:05;;;;;;;4.90;2.75;;;18.10;61.50;;;;;;7378912;19;20011;-61
2022/06/24 03:25:36;;;;;;;6.90;2.78;;;18.20;59.80;;;;;;7367068;19;20021;-61
2022/06/24 03:28:07;;;;;;;9.95;3.00;;;18.20;56.60;;;;;;7365498;19;20007;-62
2022/06/24 03:30:40;;;;;;;4.43;2.58;;;18.10;56.20;;;;;;7367057;19;20017;-62
2022/06/24 03:33:10;;;;;;;6.63;2.50;;;18.10;55.60;;;;;;7357528;19;20759;-63
2022/06/24 03:35:40;;;;;;;9.50;2.70;;;18.20;55.10;;;;;;7365877;19;20053;-61
2022/06/24 03:38:12;;;;;;;6.65;3.08;;;18.20;51.80;;;;;;7386678;19;20105;-61
2022/06/24 03:40:42;;;;;;;9.40;2.33;;;18.10;52.60;;;;;;7366921;19;21294;-61
2022/06/24 03:43:12;;;;;;;6.40;2.80;;;18.10;52.00;;;;;;7358139;19;20014;-62
2022/06/24 03:45:42;;;;;;;6.25;2.80;;;18.20;51.70;;;;;;7364637;19;20015;-61
2022/06/24 03:48:11;;;;;;;8.30;2.95;;;18.20;51.20;;;;;;7365139;19;20014;-62
2022/06/24 03:50:42;;;;;;;8.50;2.80;;;18.20;51.50;;;;;;7367175;19;20074;-61
2022/06/24 03:53:17;;;;;;;9.43;2.80;;;18.10;50.90;;;;;;7376106;19;20014;-61
2022/06/24 03:55:50;;;;;;;6.25;3.00;;;18.10;50.40;;;;;;7365419;19;20011;-61
2022/06/24 03:58:20;;;;;;;7.32;2.67;;;18.10;50.50;;;;;;7364618;19;20026;-61
2022/06/24 04:00:50;;;;;;;6.72;2.70;;;18.10;51.80;;;;;;7366380;19;20015;-61
2022/06/24 04:03:20;;;;;;;10.18;2.95;;;18.10;51.90;;;;;;7358071;19;20089;-61
2022/06/24 04:05:50;;;;;;;7.38;2.78;;;18.10;48.50;;;;;;7365997;19;20097;-61
2022/06/24 04:08:23;;;;;;;6.43;2.95;;;18.20;51.40;;;;;;7385992;19;20070;-61
2022/06/24 04:10:53;;;;;;;8.35;2.65;;;18.10;49.20;;;;;;7366034;19;20019;-61
2022/06/24 04:13:23;;;;;;;6.28;2.88;;;18.10;50.80;;;;;;7357136;19;20065;-61
2022/06/24 04:15:54;;;;;;;9.80;3.40;;;18.10;51.50;;;;;;7364255;19;20014;-61
2022/06/24 04:18:24;;;;;;;6.07;3.30;;;18.10;53.50;;;;;;7363938;19;20020;-61
2022/06/24 04:20:54;;;;;;;7.47;3.20;;;18.10;53.40;;;;;;7365151;19;20030;-61
2022/06/24 04:23:26;;;;;;;6.28;3.00;;;18.30;50.70;;;;;;7356551;19;20021;-62
2022/06/24 04:25:56;;;;;;;7.78;3.63;;;19.00;44.60;;;;;;7385509;19;20086;-62
2022/06/24 04:28:26;;;;;;;9.60;3.20;;;19.50;37.30;;;;;;7364284;19;20476;-62
2022/06/24 04:30:56;;;;;;;7.60;2.95;;;21.60;15.70;;;;;;7365782;19;20085;-61
2022/06/24 04:33:26;;;;;;;9.25;2.70;;;22.50;9.60;;;;;;7355911;19;20017;-61
2022/06/24 04:35:56;;;;;;;9.48;2.97;;;22.50;7.80;;;;;;7364191;19;20357;-61
2022/06/24 04:38:29;;;;;;;5.90;2.58;;;22.30;2.90;;;;;;7362384;19;20073;-62
2022/06/24 04:40:58;;;;;;;6.05;2.42;;;22.50;1.10;;;;;;7386978;19;20020;-62
2022/06/24 04:43:28;;;;;;;8.20;2.65;;;23.60;1.00;;;;;;7356564;19;20012;-62
2022/06/24 04:45:58;;;;;;;6.55;2.35;;;24.10;1.00;;;;;;7363537;19;20024;-62
2022/06/24 04:48:28;;;;;;;8.00;2.50;;;24.30;1.00;;;;;;7363629;19;20048;-62
2022/06/24 04:50:58;;;;;;;8.50;2.63;;;24.40;1.00;;;;;;7365175;19;20395;-62
2022/06/24 04:53:31;;;;;;;5.32;2.28;;;24.80;1.00;;;;;;7355441;19;20016;-63
2022/06/24 04:56:01;;;;;;;8.02;2.20;;;25.00;1.00;;;;;;7385444;19;20018;-61
2022/06/24 04:58:30;;;;;;;8.68;2.20;;;24.70;1.00;;;;;;7363052;19;20069;-62
2022/06/24 05:01:01;;;;;;;6.20;2.28;;;24.90;1.00;;;;;;7364056;19;20042;-62
2022/06/24 05:03:31;;;;;;;5.00;2.33;;;24.30;1.00;;;;;;7357747;19;20018;-62
2022/06/24 05:06:01;;;;;;;6.32;2.30;;;25.40;1.00;;;;;;7370750;19;20063;-62
2022/06/24 05:08:34;;;;;;;6.13;2.35;;;25.60;1.00;;;;;;7369847;19;20014;-62
2022/06/24 05:11:03;;;;;;;7.93;2.70;;;25.40;1.00;;;;;;7392604;19;20091;-61
2022/06/24 05:13:33;;;;;;;6.85;2.70;;;25.50;1.00;;;;;;7362987;19;20086;-61
2022/06/24 05:16:03;;;;;;;5.43;2.38;;;26.50;1.00;;;;;;7367059;19;20009;-61
2022/06/24 05:18:53;;;;;;;7.43;2.72;;;25.60;1.00;;;;;;7369739;19;20028;-61
2022/06/24 05:21:23;;;;;;;7.45;2.80;;;26.20;1.00;;;;;;7367528;19;20016;-61
2022/06/24 05:23:55;;;;;;;7.28;2.78;;;26.10;1.00;;;;;;7364254;19;20010;-63
2022/06/24 05:26:25;;;;;;;10.07;2.80;;;26.20;1.00;;;;;;7369178;19;20021;-61
2022/06/24 05:28:55;;;;;;;7.18;2.67;;;25.40;1.00;;;;;;7390440;19;20035;-60
2022/06/24 05:31:25;;;;;;;8.48;2.70;;;26.10;1.00;;;;;;7366659;19;20002;-61
2022/06/24 05:33:55;;;;;;;8.85;2.80;;;25.70;1.00;;;;;;7363809;19;20015;-61
2022/06/24 05:36:24;;;;;;;7.95;2.90;;;25.20;1.00;;;;;;7366361;19;20013;-62
2022/06/24 05:38:57;;;;;;;7.60;2.75;;;26.30;1.00;;;;;;7365934;19;20020;-62
2022/06/24 05:41:27;;;;;;;6.40;2.63;;;26.40;1.00;;;;;;7367198;19;20354;-62
2022/06/24 05:43:57;;;;;;;5.55;2.60;;;26.00;1.00;;;;;;7385176;19;20028;-61
2022/06/24 05:46:30;;;;;;;7.15;2.53;;;25.80;1.00;;;;;;7367327;19;20052;-61
2022/06/24 05:49:00;;;;;;;13.75;3.10;;;26.00;1.00;;;;;;7368124;19;20015;-61
2022/06/24 05:51:34;;;;;;;7.75;2.83;;;26.20;1.00;;;;;;7366214;19;20010;-62
2022/06/24 05:56:49;;;;;;;7.68;3.40;;;26.20;1.00;;;;;;7368592;19;20014;-61
2022/06/24 05:59:19;;;;;;;7.95;2.60;;;26.70;1.00;;;;;;7388781;19;20024;-62
2022/06/24 06:01:49;;;;;;;9.60;2.55;;;26.40;1.00;;;;;;7363002;19;20014;-61
2022/06/24 06:04:19;;;;;;;7.22;2.30;;;24.90;1.00;;;;;;7366384;19;20046;-61
2022/06/24 06:06:50;;;;;;;7.78;2.45;;;24.00;1.00;;;;;;7368610;19;20013;-61
2022/06/24 06:09:22;;;;;;;10.85;2.67;;;23.40;1.00;;;;;;7367872;19;20765;-62
2022/06/24 06:11:52;;;;;;;8.65;2.45;;;23.30;1.00;;;;;;7362678;19;20089;-60
2022/06/24 06:14:22;;;;;;;6.97;2.45;;;23.00;1.00;;;;;;7382114;19;20100;-61
2022/06/24 06:16:52;;;;;;;10.65;3.17;;;23.20;1.00;;;;;;7385669;19;20011;-61
2022/06/24 06:19:22;;;;;;;6.85;2.40;;;23.70;1.00;;;;;;7366392;19;20474;-61
2022/06/24 06:21:52;;;;;;;9.00;2.40;;;23.70;1.00;;;;;;7362278;19;20507;-62
2022/06/24 06:24:24;;;;;;;5.10;2.22;;;23.70;1.00;;;;;;7365020;19;20006;-62
2022/06/24 06:26:54;;;;;;;9.27;2.58;;;24.20;1.00;;;;;;7366712;19;20015;-62
2022/06/24 06:29:24;;;;;;;6.82;2.03;;;24.10;1.00;;;;;;7366751;19;20018;-63
2022/06/24 06:31:55;;;;;;;9.05;2.30;;;24.50;1.00;;;;;;7384152;19;20056;-62
2022/06/24 06:34:25;;;;;;;5.22;2.30;;;24.10;1.00;;;;;;7364480;19;20010;-62
2022/06/24 06:36:55;;;;;;;8.70;2.95;;;23.90;1.00;;;;;;7366427;19;20057;-62
2022/06/24 06:39:27;;;;;;;5.30;2.20;;;24.30;1.00;;;;;;7365564;19;20142;-61
2022/06/24 06:41:57;;;;;;;5.80;2.42;;;24.80;1.00;;;;;;7361100;19;20098;-62
2022/06/24 06:44:27;;;;;;;9.05;2.35;;;25.40;1.00;;;;;;7366149;19;20035;-62
2022/06/24 06:46:57;;;;;;;11.60;2.40;;;25.50;1.00;;;;;;7386847;19;20045;-62
2022/06/24 06:49:27;;;;;;;10.30;2.35;;;25.20;1.00;;;;;;7365265;19;20046;-61
2022/06/24 06:51:57;;;;;;;7.75;2.30;;;24.20;1.00;;;;;;7361428;19;20495;-62
2022/06/24 06:54:30;;;;;;;7.90;2.05;;;24.20;1.00;;;;;;7366496;19;20014;-62
2022/06/24 06:57:00;;;;;;;8.50;2.50;;;24.30;1.00;;;;;;7365166;19;20022;-62
2022/06/24 06:59:29;;;;;;;5.80;2.10;;;24.10;1.00;;;;;;7363658;19;20027;-62
2022/06/24 07:01:59;;;;;;;5.78;2.38;;;24.10;1.00;;;;;;7383120;19;20017;-60
2022/06/24 07:04:29;;;;;;;4.22;2.45;;;24.80;1.00;;;;;;7366028;19;20011;-62
2022/06/24 07:06:59;;;;;;;6.90;2.33;;;25.10;1.00;;;;;;7363908;19;20021;-62
2022/06/24 07:09:32;;;;;;;8.50;2.38;;;24.90;1.00;;;;;;7365762;19;20006;-62
2022/06/24 07:12:01;;;;;;;7.85;2.40;;;24.40;1.00;;;;;;7359852;19;20021;-62
2022/06/24 07:14:31;;;;;;;5.88;2.30;;;24.50;1.00;;;;;;7366612;19;20020;-62
2022/06/24 07:17:01;;;;;;;10.32;2.17;;;24.00;1.00;;;;;;7386120;19;20086;-62
2022/06/24 07:19:31;;;;;;;32.85;22.65;;;23.60;1.00;;;;;;7363280;19;20007;-61
2022/06/24 07:22:01;;;;;;;4.43;2.10;;;23.90;1.00;;;;;;7360428;19;20011;-62
2022/06/24 07:24:34;;;;;;;5.55;2.08;;;24.50;1.00;;;;;;7366230;19;20535;-62
2022/06/24 07:27:05;;;;;;;6.20;1.80;;;24.50;1.00;;;;;;7363567;19;20043;-62
2022/06/24 07:29:36;;;;;;;5.28;2.15;;;24.00;1.00;;;;;;7365130;19;20086;-63
2022/06/24 07:32:08;;;;;;;6.38;2.22;;;23.60;1.00;;;;;;7379727;19;20018;-62
2022/06/24 07:34:38;;;;;;;6.30;1.88;;;23.60;1.00;;;;;;7365196;19;20027;-62
2022/06/24 07:37:08;;;;;;;7.20;2.33;;;23.80;1.00;;;;;;7365005;19;20010;-63
2022/06/24 07:39:47;;;;;;;5.07;1.90;;;23.80;1.00;;;;;;7363588;19;20031;-62
2022/06/24 07:42:17;;;;;;;7.07;2.47;;;24.10;1.00;;;;;;7357643;19;20036;-62
2022/06/24 07:44:47;;;;;;;5.82;2.15;;;24.50;1.00;;;;;;7365603;19;20358;-62
2022/06/24 07:47:17;;;;;;;6.07;1.92;;;24.70;1.00;;;;;;7384119;19;20011;-62
2022/06/24 07:49:47;;;;;;;5.22;1.90;;;24.70;1.00;;;;;;7361730;19;20469;-62
2022/06/24 07:52:17;;;;;;;5.10;1.90;;;24.90;1.00;;;;;;7355007;19;20010;-62
2022/06/24 07:56:56;;;;;;;7.47;2.00;;;24.70;1.00;;;;;;7364371;19;20015;-63
2022/06/24 07:57:37;;;;;;;4.40;2.30;;;24.30;1.00;;;;;;7363630;19;20474;-63
2022/06/24 08:00:08;;;;;;;5.95;2.30;;;24.90;1.00;;;;;;7361357;19;20458;-63
2022/06/24 08:02:42;;;;;;;10.52;2.67;;;24.60;1.00;;;;;;7355713;19;21588;-63
2022/06/24 08:05:12;;;;;;;4.93;2.05;;;24.20;1.00;;;;;;7384124;19;20549;-63
2022/06/24 08:07:43;;;;;;;3.47;1.65;;;24.30;1.00;;;;;;7363359;19;20461;-63
2022/06/24 08:10:15;;;;;;;3.53;2.13;;;24.90;1.00;;;;;;7363618;19;20006;-63
2022/06/24 08:12:45;;;;;;;6.18;2.45;;;24.80;1.00;;;;;;7354879;19;20034;-62
2022/06/24 08:15:16;;;;;;;6.07;2.08;;;25.30;1.00;;;;;;7363695;19;20010;-63
2022/06/24 08:17:48;;;;;;;6.40;2.38;;;25.80;1.00;;;;;;7360048;19;20077;-64
2022/06/24 08:20:21;;;;;;;6.40;2.45;;;25.90;1.00;;;;;;7383484;19;20044;-61
2022/06/24 08:22:51;;;;;;;3.35;1.60;;;25.40;1.00;;;;;;7354632;19;20356;-62
2022/06/24 08:25:23;;;;;;;3.55;1.67;;;24.10;1.00;;;;;;7363199;19;20014;-63
2022/06/24 08:27:54;;;;;;;3.42;1.70;;;24.10;1.00;;;;;;7362656;19;20014;-62
2022/06/24 08:30:23;;;;;;;7.90;2.53;;;24.40;1.00;;;;;;7363160;19;20077;-61
2022/06/24 08:32:53;;;;;;;7.13;2.15;;;23.90;1.00;;;;;;7353631;19;20014;-62
2022/06/24 08:35:23;;;;;;;8.35;2.70;;;23.70;1.00;;;;;;7369266;19;20484;-62
2022/06/24 08:37:58;;;;;;;10.25;2.95;;;22.90;1.00;;;;;;7382897;19;20041;-62
2022/06/24 08:40:31;;;;;;;6.60;2.78;;;22.70;1.00;;;;;;7369163;19;20014;-61
2022/06/24 08:43:02;;;;;;;7.25;2.80;;;23.10;1.00;;;;;;7360822;19;20073;-61
2022/06/24 08:45:32;;;;;;;5.40;2.80;;;23.00;1.00;;;;;;7369743;19;20039;-63
2022/06/24 08:48:02;;;;;;;6.05;2.55;;;23.50;1.00;;;;;;7369361;19;20059;-62
2022/06/24 08:50:32;;;;;;;9.25;2.88;;;24.00;1.00;;;;;;7369254;19;20023;-61
2022/06/24 08:53:06;;;;;;;12.00;5.03;;;24.40;1.00;;;;;;7382624;19;20023;-61
2022/06/24 08:55:40;;;;;;;;;;;24.20;1.00;;;;;;7369453;19;20021;-61
2022/06/24 08:58:11;;;;;;;7.43;3.88;;;23.50;1.00;;;;;;7366482;19;19932;-61
2022/06/24 09:00:42;;;;;;;8.52;2.90;;;23.70;1.00;;;;;;7368204;19;20383;-62
2022/06/24 09:03:12;;;;;;;6.00;2.80;;;24.00;1.00;;;;;;7361439;19;20490;-62
2022/06/24 09:05:43;;;;;;;7.28;3.40;;;24.30;1.00;;;;;;7369738;19;20031;-63
2022/06/24 09:08:15;;;;;;;6.35;2.38;;;23.60;1.00;;;;;;7392483;19;20015;-63
2022/06/24 09:11:06;;;;;;;6.32;2.70;;;23.60;1.00;;;;;;7370746;19;20086;-62
2022/06/24 09:13:44;;;;;;;4.95;2.38;;;23.50;1.00;;;;;;7362172;19;20039;-61
2022/06/24 09:16:15;;;;;;;6.25;2.67;;;24.30;1.00;;;;;;7366882;19;20014;-62
2022/06/24 09:18:52;;;;;;;3.95;2.50;;;24.20;1.00;;;;;;7365373;19;20021;-62
2022/06/24 09:21:27;;;;;;;7.63;2.30;;;24.70;1.00;;;;;;7362172;19;20396;-62
2022/06/24 09:23:59;;;;;;;6.78;2.80;;;24.10;1.00;;;;;;7361996;19;20007;-62
2022/06/24 09:26:37;;;;;;;5.90;2.30;;;24.40;1.00;;;;;;7365722;19;20128;-62
2022/06/24 09:29:08;;;;;;;5.95;2.53;;;25.10;1.00;;;;;;7390294;19;20014;-62
2022/06/24 09:31:39;;;;;;;6.78;2.50;;;23.90;1.00;;;;;;7364830;19;20055;-62
2022/06/24 09:34:12;;;;;;;6.35;2.90;;;24.40;1.00;;;;;;7365119;19;20532;-62
2022/06/24 09:36:43;;;;;;;5.78;2.38;;;24.20;1.00;;;;;;7368515;19;20011;-62
2022/06/24 09:39:14;;;;;;;5.70;2.40;;;24.20;1.00;;;;;;7367897;19;20007;-61
2022/06/24 09:41:57;;;;;;;5.07;2.30;;;24.60;1.00;;;;;;7363596;19;20530;-63
2022/06/24 09:44:27;;;;;;;4.85;2.60;;;24.90;1.00;;;;;;7366591;19;20096;-62
2022/06/24 09:47:04;;;;;;;6.07;2.20;;;24.40;1.00;;;;;;7388347;19;20021;-62
2022/06/24 09:49:34;;;;;;;7.97;2.42;;;24.10;1.00;;;;;;7367789;19;20007;-62
2022/06/24 09:52:08;;;;;;;3.72;2.10;;;24.50;1.00;;;;;;7362592;19;20074;-62
2022/06/24 09:54:41;;;;;;;4.93;2.15;;;25.10;1.00;;;;;;7366299;19;20537;-62
2022/06/24 09:57:13;;;;;;;5.75;2.28;;;24.70;1.00;;;;;;7367456;19;20003;-63
2022/06/24 10:02:38;;;;;;;3.63;2.17;;;25.20;1.00;;;;;;7361135;19;20034;-62
2022/06/24 10:05:11;;;;;;;5.03;2.05;;;24.60;1.00;;;;;;7386230;19;20014;-62
2022/06/24 10:07:45;;;;;;;4.30;2.25;;;24.70;1.00;;;;;;7366126;19;20021;-63
2022/06/24 10:10:16;;;;;;;;;;;25.00;1.00;;;;;;7365863;19;20014;-64
2022/06/24 10:12:52;;;;;;;5.13;2.53;;;24.70;1.00;;;;;;7361977;19;19921;-63
2022/06/24 10:15:24;;;;;;;6.57;2.60;;;24.80;1.00;;;;;;7367606;19;20014;-63
2022/06/24 10:17:54;;;;;;;4.40;2.28;;;25.00;1.00;;;;;;7369043;19;20017;-62
2022/06/24 10:20:25;;;;;;;5.70;2.30;;;24.70;1.00;;;;;;7365089;19;20014;-63
2022/06/24 10:22:57;;;;;;;6.68;2.47;;;24.10;1.00;;;;;;7383760;19;20025;-63
2022/06/24 10:25:54;;;;;;;5.75;2.33;;;24.40;1.00;;;;;;7365947;19;20078;-62
2022/06/24 10:28:27;;;;;;;4.47;2.30;;;24.80;1.00;;;;;;7361930;19;20015;-63
2022/06/24 10:30:59;;;;;;;6.00;2.53;;;24.80;1.00;;;;;;7366440;19;20027;-63
2022/06/24 10:33:31;;;;;;;5.82;2.55;;;25.10;1.00;;;;;;7362000;19;20110;-62
2022/06/24 10:36:03;;;;;;;5.40;2.60;;;25.00;1.00;;;;;;7366994;19;20010;-63
2022/06/24 10:38:41;;;;;;;7.03;2.50;;;25.40;1.00;;;;;;7366628;19;20018;-62
2022/06/24 10:41:12;;;;;;;4.85;2.22;;;25.80;1.00;;;;;;7385030;19;20052;-63
2022/06/24 10:43:46;;;;;;;4.43;2.25;;;25.50;1.00;;;;;;7362583;19;20054;-63
2022/06/24 10:46:21;;;;;;;4.85;2.35;;;25.50;1.00;;;;;;7364995;19;20031;-63
2022/06/24 10:49:03;;;;;;;5.88;1.95;;;25.00;1.00;;;;;;7367097;19;20007;-63
2022/06/24 10:51:35;;;;;;;4.13;2.08;;;24.50;1.00;;;;;;7362971;19;20455;-63
2022/06/24 10:54:15;;;;;;;3.58;1.75;;;24.80;1.00;;;;;;7361097;19;20010;-63
2022/06/24 10:56:48;;;;;;;5.25;2.00;;;25.00;1.00;;;;;;7365890;19;20018;-64
2022/06/24 10:59:22;;;;;;;4.45;2.00;;;24.60;1.00;;;;;;7388429;19;20100;-62
2022/06/24 11:01:52;;;;;;;;;;;24.80;1.00;;;;;;7361443;19;20090;-63
2022/06/24 11:04:28;;;;;;;7.50;2.05;;;24.80;1.00;;;;;;7361197;19;19911;-63
2022/06/24 11:07:12;;;;;;;2.78;1.70;;;25.40;1.00;;;;;;7365490;19;20017;-63
2022/06/24 11:09:42;;;;;;;3.17;1.52;;;25.40;1.00;;;;;;7363402;19;20750;-63
2022/06/24 11:12:30;;;;;;;3.58;1.70;;;25.30;1.00;;;;;;7363292;19;20022;-62
2022/06/24 11:15:04;;;;;;;3.97;1.60;;;25.50;1.00;;;;;;7356044;19;20113;-62
2022/06/24 11:17:34;;;;;;;4.50;1.60;;;25.90;1.00;;;;;;7363734;19;20011;-63
2022/06/24 11:20:08;;;;;;;2.75;1.42;;;25.80;1.00;;;;;;7386506;19;20480;-63
2022/06/24 11:22:44;;;;;;;2.67;1.50;;;26.10;1.00;;;;;;7364491;19;20038;-62
2022/06/24 11:25:16;;;;;;;3.25;1.50;;;25.60;1.00;;;;;;7360927;19;20019;-62
2022/06/24 11:27:46;;;;;;;2.95;1.50;;;25.70;1.00;;;;;;7351660;19;20044;-62
2022/06/24 11:30:20;;;;;;;3.03;1.58;;;24.90;1.00;;;;;;7365791;19;20013;-61
2022/06/24 11:32:53;;;;;;;4.38;1.83;;;24.90;1.00;;;;;;7363665;19;20010;-62
2022/06/24 11:35:24;;;;;;;1.90;1.13;;;24.60;1.00;;;;;;7372212;19;20014;-63
2022/06/24 11:37:56;;;;;;;2.30;1.20;;;24.90;1.00;;;;;;7385385;19;20418;-62
2022/06/24 11:40:31;;;;;;;2.35;1.20;;;25.60;1.00;;;;;;7364830;19;20010;-64
2022/06/24 11:43:07;;;;;;;2.67;1.65;;;25.80;1.00;;;;;;7360467;19;20018;-63
2022/06/24 11:45:42;;;;;;;1.83;1.23;;;25.90;1.00;;;;;;7364632;19;20018;-62
2022/06/24 11:48:14;;;;;;;4.25;1.25;;;25.50;1.00;;;;;;7364070;19;20074;-63
2022/06/24 11:50:43;;;;;;;6.60;1.50;;;25.00;1.00;;;;;;7365672;19;20471;-63
2022/06/24 11:53:13;;;;;;;2.78;1.20;;;25.30;1.00;;;;;;7381996;19;20014;-63
2022/06/24 11:55:52;;;;;;;3.55;1.35;;;26.00;1.00;;;;;;7364566;19;20560;-63
2022/06/24 11:58:23;;;;;;;2.28;1.05;;;25.80;1.00;;;;;;7364803;19;20398;-62
2022/06/24 12:00:56;;;;;;;1.77;1.10;;;25.50;1.00;;;;;;7365096;19;20093;-63
2022/06/24 12:03:27;;;;;;;2.38;1.10;;;25.40;1.00;;;;;;7358089;19;20081;-63
2022/06/24 12:05:57;;;;;;;1.42;0.82;;;25.80;1.00;;;;;;7364137;19;20488;-63
2022/06/24 12:08:27;;;;;;;4.03;1.00;;;25.90;1.00;;;;;;7365607;19;20086;-62
2022/06/24 12:10:57;;;;;;;1.90;1.00;;;25.70;1.00;;;;;;7385799;19;20006;-63
2022/06/24 12:13:30;;;;;;;2.47;1.20;;;25.60;1.00;;;;;;7357683;19;20522;-62
2022/06/24 12:16:03;;;;;;;1.90;0.90;;;25.10;1.00;;;;;;7371117;19;20030;-62
2022/06/24 12:18:33;;;;;;;2.03;1.40;;;25.50;1.00;;;;;;7372215;19;20026;-62
2022/06/24 12:21:06;;;;;;;1.98;1.10;;;25.30;1.00;;;;;;7372083;19;20018;-63
2022/06/24 12:23:38;;;;;;;2.50;1.30;;;24.90;1.00;;;;;;7368654;19;20006;-63
2022/06/24 12:26:16;;;;;;;2.00;1.10;;;25.00;1.00;;;;;;7392533;19;20092;-62
2022/06/24 12:28:59;;;;;;;1.92;1.15;;;25.80;1.00;;;;;;7371105;19;20101;-62
2022/06/24 12:31:32;;;;;;;1.95;1.13;;;26.00;1.00;;;;;;7370726;19;20016;-62
2022/06/24 12:34:02;;;;;;;2.15;1.38;;;25.40;1.00;;;;;;7365894;19;20086;-63
2022/06/24 12:36:41;;;;;;;3.90;1.23;;;25.40;1.00;;;;;;7371251;19;20017;-63
2022/06/24 12:39:13;;;;;;;3.00;1.20;;;25.00;1.00;;;;;;7371046;19;20006;-63
2022/06/24 12:41:47;;;;;;;2.65;1.10;;;25.30;1.00;;;;;;7367669;19;20007;-63
2022/06/24 12:44:17;;;;;;;3.75;1.27;;;25.30;1.00;;;;;;7386726;19;20035;-61
2022/06/24 12:52:38;;;;;;;2.30;0.95;;;25.60;1.00;;;;;;7368088;19;20014;-62
2022/06/24 12:55:09;;;;;;;;;;;25.60;1.00;;;;;;7366679;19;20010;-62
2022/06/24 12:57:39;;;;;;;2.88;1.00;;;25.80;1.00;;;;;;7371022;19;20347;-63
2022/06/24 13:00:11;;;;;;;2.63;1.13;;;26.00;1.00;;;;;;7369339;19;20023;-64
2022/06/24 13:02:47;;;;;;;1.35;0.98;;;26.10;1.00;;;;;;7369626;19;20021;-63
2022/06/24 13:05:19;;;;;;;1.85;0.90;;;26.00;1.00;;;;;;7389298;19;20022;-64
2022/06/24 13:07:50;;;;;;;2.28;1.08;;;26.00;1.00;;;;;;7371475;19;20006;-63
2022/06/24 13:10:20;;;;;;;3.72;1.17;;;26.10;1.00;;;;;;7368374;19;20143;-63
2022/06/24 13:12:51;;;;;;;1.65;1.10;;;26.40;1.00;;;;;;7369424;19;20015;-63
2022/06/24 13:15:23;;;;;;;2.40;1.20;;;26.20;1.00;;;;;;7367912;19;20002;-62
2022/06/24 13:17:56;;;;;;;4.43;1.20;;;26.10;1.00;;;;;;7369803;19;20027;-62
2022/06/24 13:20:26;;;;;;;2.20;1.20;;;25.80;1.00;;;;;;7370455;19;20022;-63
2022/06/24 13:22:56;;;;;;;1.90;1.20;;;25.70;1.00;;;;;;7386722;19;20010;-63
2022/06/24 13:25:27;;;;;;;1.52;0.95;;;25.70;1.00;;;;;;7366425;19;20019;-64
2022/06/24 13:27:59;;;;;;;1.42;1.00;;;25.60;1.00;;;;;;7369718;19;20380;-62
2022/06/24 13:30:32;;;;;;;2.25;1.00;;;25.50;1.00;;;;;;7369147;19;20200;-62
2022/06/24 13:33:05;;;;;;;3.20;1.30;;;25.60;1.00;;;;;;7364397;19;20011;-64
2022/06/24 13:35:35;;;;;;;4.35;1.20;;;25.80;1.00;;;;;;7367516;19;20086;-62
2022/06/24 13:38:05;;;;;;;1.80;1.10;;;26.30;1.00;;;;;;7392144;19;20432;-62